sensor_id;sensor_type;location;lat;lon;timestamp;P1;durP1;ratioP1;P2;durP2;ratioP2
41233;SDS011;26968;42.686;23.352;2022-10-23T00:00:32;58.53;;;29.75;;
41233;SDS011;26968;42.686;23.352;2022-10-23T00:02:58;51.08;;;31.20;;
41233;SDS011;26968;42.686;23.352;2022-10-23T00:05:24;59.47;;;29.63;;
41233;SDS011;26968;42.686;23.352;2022-10-23T00:07:51;55.58;;;30.90;;
41233;SDS011;26968;42.686;23.352;2022-10-23T00:10:19;65.38;;;31.25;;
41233;SDS011;26968;42.686;23.352;2022-10-23T00:12:45;54.72;;;30.75;;
41233;SDS011;26968;42.686;23.352;2022-10-23T00:15:11;59.35;;;30.30;;
41233;SDS011;26968;42.686;23.352;2022-10-23T00:17:38;68.03;;;31.45;;
41233;SDS011;26968;42.686;23.352;2022-10-23T00:20:04;60.40;;;32.30;;
41233;SDS011;26968;42.686;23.352;2022-10-23T00:22:31;62.72;;;31.70;;
41233;SDS011;26968;42.686;23.352;2022-10-23T00:24:56;65.45;;;30.60;;
41233;SDS011;26968;42.686;23.352;2022-10-23T00:27:21;58.92;;;29.67;;
41233;SDS011;26968;42.686;23.352;2022-10-23T00:29:47;57.13;;;29.52;;
41233;SDS011;26968;42.686;23.352;2022-10-23T00:32:12;57.03;;;28.55;;
41233;SDS011;26968;42.686;23.352;2022-10-23T00:34:38;54.10;;;29.95;;
41233;SDS011;26968;42.686;23.352;2022-10-23T00:37:03;57.40;;;31.40;;
41233;SDS011;26968;42.686;23.352;2022-10-23T00:39:29;61.97;;;29.80;;
41233;SDS011;26968;42.686;23.352;2022-10-23T00:41:54;61.08;;;30.38;;
41233;SDS011;26968;42.686;23.352;2022-10-23T00:46:45;47.38;;;28.95;;
41233;SDS011;26968;42.686;23.352;2022-10-23T00:49:10;57.40;;;29.75;;
41233;SDS011;26968;42.686;23.352;2022-10-23T00:51:38;48.03;;;28.90;;
41233;SDS011;26968;42.686;23.352;2022-10-23T00:54:07;48.13;;;28.33;;
41233;SDS011;26968;42.686;23.352;2022-10-23T00:56:34;53.95;;;27.52;;
41233;SDS011;26968;42.686;23.352;2022-10-23T00:59:02;45.55;;;25.25;;
41233;SDS011;26968;42.686;23.352;2022-10-23T01:01:27;42.00;;;22.40;;
41233;SDS011;26968;42.686;23.352;2022-10-23T01:03:53;51.03;;;26.50;;
41233;SDS011;26968;42.686;23.352;2022-10-23T01:06:21;62.78;;;31.90;;
41233;SDS011;26968;42.686;23.352;2022-10-23T01:09:07;71.85;;;34.55;;
41233;SDS011;26968;42.686;23.352;2022-10-23T01:11:39;67.13;;;35.97;;
41233;SDS011;26968;42.686;23.352;2022-10-23T01:16:59;71.38;;;34.35;;
41233;SDS011;26968;42.686;23.352;2022-10-23T01:22:06;64.15;;;34.22;;
41233;SDS011;26968;42.686;23.352;2022-10-23T01:27:41;57.17;;;30.85;;
41233;SDS011;26968;42.686;23.352;2022-10-23T01:30:13;56.45;;;30.55;;
41233;SDS011;26968;42.686;23.352;2022-10-23T01:35:25;64.75;;;29.70;;
41233;SDS011;26968;42.686;23.352;2022-10-23T01:38:15;56.95;;;30.30;;
41233;SDS011;26968;42.686;23.352;2022-10-23T01:41:09;57.42;;;29.20;;
41233;SDS011;26968;42.686;23.352;2022-10-23T01:43:51;51.92;;;28.00;;
41233;SDS011;26968;42.686;23.352;2022-10-23T01:46:28;53.13;;;28.00;;
41233;SDS011;26968;42.686;23.352;2022-10-23T01:48:56;50.60;;;26.50;;
41233;SDS011;26968;42.686;23.352;2022-10-23T01:51:25;60.45;;;30.63;;
41233;SDS011;26968;42.686;23.352;2022-10-23T01:53:54;53.15;;;27.98;;
41233;SDS011;26968;42.686;23.352;2022-10-23T01:56:23;56.47;;;27.23;;
41233;SDS011;26968;42.686;23.352;2022-10-23T01:58:53;59.05;;;29.90;;
41233;SDS011;26968;42.686;23.352;2022-10-23T02:01:21;55.22;;;28.85;;
41233;SDS011;26968;42.686;23.352;2022-10-23T02:03:49;48.03;;;26.73;;
41233;SDS011;26968;42.686;23.352;2022-10-23T02:06:17;57.35;;;27.42;;
41233;SDS011;26968;42.686;23.352;2022-10-23T02:08:42;49.85;;;27.20;;
41233;SDS011;26968;42.686;23.352;2022-10-23T02:11:16;51.47;;;28.33;;
41233;SDS011;26968;42.686;23.352;2022-10-23T02:16:29;49.13;;;26.73;;
41233;SDS011;26968;42.686;23.352;2022-10-23T02:24:44;45.40;;;24.30;;
41233;SDS011;26968;42.686;23.352;2022-10-23T02:27:16;47.40;;;25.85;;
41233;SDS011;26968;42.686;23.352;2022-10-23T02:29:49;48.95;;;24.48;;
41233;SDS011;26968;42.686;23.352;2022-10-23T02:32:19;47.22;;;24.40;;
41233;SDS011;26968;42.686;23.352;2022-10-23T02:34:48;43.22;;;24.35;;
41233;SDS011;26968;42.686;23.352;2022-10-23T02:37:14;42.55;;;25.10;;
41233;SDS011;26968;42.686;23.352;2022-10-23T02:39:40;41.30;;;25.20;;
41233;SDS011;26968;42.686;23.352;2022-10-23T02:50:11;44.97;;;22.45;;
41233;SDS011;26968;42.686;23.352;2022-10-23T02:52:57;42.60;;;23.58;;
41233;SDS011;26968;42.686;23.352;2022-10-23T02:55:38;36.53;;;20.95;;
41233;SDS011;26968;42.686;23.352;2022-10-23T03:00:53;41.60;;;23.45;;
41233;SDS011;26968;42.686;23.352;2022-10-23T03:03:28;42.05;;;21.95;;
41233;SDS011;26968;42.686;23.352;2022-10-23T03:05:57;43.38;;;22.27;;
41233;SDS011;26968;42.686;23.352;2022-10-23T03:08:23;35.92;;;20.92;;
41233;SDS011;26968;42.686;23.352;2022-10-23T03:10:49;42.53;;;22.58;;
41233;SDS011;26968;42.686;23.352;2022-10-23T03:13:15;38.25;;;21.65;;
41233;SDS011;26968;42.686;23.352;2022-10-23T03:15:41;40.75;;;21.63;;
41233;SDS011;26968;42.686;23.352;2022-10-23T03:18:07;44.38;;;23.05;;
41233;SDS011;26968;42.686;23.352;2022-10-23T03:20:33;50.08;;;23.05;;
41233;SDS011;26968;42.686;23.352;2022-10-23T03:22:58;37.70;;;22.02;;
41233;SDS011;26968;42.686;23.352;2022-10-23T03:25:23;41.65;;;21.98;;
41233;SDS011;26968;42.686;23.352;2022-10-23T03:27:49;42.22;;;22.98;;
41233;SDS011;26968;42.686;23.352;2022-10-23T03:30:14;40.88;;;21.88;;
41233;SDS011;26968;42.686;23.352;2022-10-23T03:32:40;38.58;;;22.38;;
41233;SDS011;26968;42.686;23.352;2022-10-23T03:35:05;43.65;;;21.63;;
41233;SDS011;26968;42.686;23.352;2022-10-23T03:37:31;43.90;;;21.23;;
41233;SDS011;26968;42.686;23.352;2022-10-23T03:39:57;40.95;;;21.15;;
41233;SDS011;26968;42.686;23.352;2022-10-23T03:42:22;44.50;;;21.65;;
41233;SDS011;26968;42.686;23.352;2022-10-23T03:44:47;37.70;;;21.90;;
41233;SDS011;26968;42.686;23.352;2022-10-23T03:47:13;41.88;;;21.40;;
41233;SDS011;26968;42.686;23.352;2022-10-23T03:49:39;44.08;;;21.65;;
41233;SDS011;26968;42.686;23.352;2022-10-23T03:52:04;35.53;;;20.90;;
41233;SDS011;26968;42.686;23.352;2022-10-23T03:54:30;38.72;;;20.80;;
41233;SDS011;26968;42.686;23.352;2022-10-23T03:56:56;31.73;;;19.42;;
41233;SDS011;26968;42.686;23.352;2022-10-23T03:59:21;43.67;;;21.20;;
41233;SDS011;26968;42.686;23.352;2022-10-23T04:01:47;43.10;;;20.77;;
41233;SDS011;26968;42.686;23.352;2022-10-23T04:04:13;34.15;;;17.88;;
41233;SDS011;26968;42.686;23.352;2022-10-23T04:06:38;36.63;;;16.67;;
41233;SDS011;26968;42.686;23.352;2022-10-23T04:09:04;31.02;;;15.27;;
41233;SDS011;26968;42.686;23.352;2022-10-23T04:11:31;41.15;;;16.02;;
41233;SDS011;26968;42.686;23.352;2022-10-23T04:13:57;26.95;;;14.25;;
41233;SDS011;26968;42.686;23.352;2022-10-23T04:16:23;31.70;;;13.25;;
41233;SDS011;26968;42.686;23.352;2022-10-23T04:18:48;35.72;;;14.38;;
41233;SDS011;26968;42.686;23.352;2022-10-23T04:21:14;25.50;;;13.95;;
41233;SDS011;26968;42.686;23.352;2022-10-23T04:23:40;28.95;;;13.88;;
41233;SDS011;26968;42.686;23.352;2022-10-23T04:26:05;40.50;;;17.77;;
41233;SDS011;26968;42.686;23.352;2022-10-23T04:28:31;33.83;;;16.85;;
41233;SDS011;26968;42.686;23.352;2022-10-23T04:30:56;33.80;;;16.13;;
41233;SDS011;26968;42.686;23.352;2022-10-23T04:33:22;27.98;;;12.68;;
41233;SDS011;26968;42.686;23.352;2022-10-23T04:35:48;19.77;;;11.48;;
41233;SDS011;26968;42.686;23.352;2022-10-23T04:38:14;22.98;;;12.57;;
41233;SDS011;26968;42.686;23.352;2022-10-23T04:40:39;36.35;;;15.88;;
41233;SDS011;26968;42.686;23.352;2022-10-23T04:43:04;34.25;;;15.75;;
41233;SDS011;26968;42.686;23.352;2022-10-23T04:45:30;30.58;;;15.85;;
41233;SDS011;26968;42.686;23.352;2022-10-23T04:47:55;34.60;;;17.70;;
41233;SDS011;26968;42.686;23.352;2022-10-23T04:50:21;31.20;;;15.80;;
41233;SDS011;26968;42.686;23.352;2022-10-23T04:52:47;38.38;;;15.85;;
41233;SDS011;26968;42.686;23.352;2022-10-23T04:55:12;31.90;;;16.02;;
41233;SDS011;26968;42.686;23.352;2022-10-23T04:57:38;42.10;;;16.85;;
41233;SDS011;26968;42.686;23.352;2022-10-23T05:00:05;33.03;;;15.73;;
41233;SDS011;26968;42.686;23.352;2022-10-23T05:02:32;34.60;;;16.60;;
41233;SDS011;26968;42.686;23.352;2022-10-23T05:04:58;27.83;;;15.27;;
41233;SDS011;26968;42.686;23.352;2022-10-23T05:07:23;36.83;;;15.80;;
41233;SDS011;26968;42.686;23.352;2022-10-23T05:09:48;36.53;;;16.67;;
41233;SDS011;26968;42.686;23.352;2022-10-23T05:12:14;33.92;;;16.48;;
41233;SDS011;26968;42.686;23.352;2022-10-23T05:14:39;41.55;;;16.77;;
41233;SDS011;26968;42.686;23.352;2022-10-23T05:17:10;32.95;;;16.25;;
41233;SDS011;26968;42.686;23.352;2022-10-23T05:19:44;38.00;;;17.55;;
41233;SDS011;26968;42.686;23.352;2022-10-23T05:22:15;36.95;;;18.15;;
41233;SDS011;26968;42.686;23.352;2022-10-23T05:24:42;44.80;;;16.67;;
41233;SDS011;26968;42.686;23.352;2022-10-23T05:27:07;41.45;;;19.17;;
41233;SDS011;26968;42.686;23.352;2022-10-23T05:29:33;40.78;;;18.85;;
41233;SDS011;26968;42.686;23.352;2022-10-23T05:31:59;35.15;;;15.95;;
41233;SDS011;26968;42.686;23.352;2022-10-23T05:34:29;33.28;;;16.25;;
41233;SDS011;26968;42.686;23.352;2022-10-23T05:36:59;39.42;;;16.67;;
41233;SDS011;26968;42.686;23.352;2022-10-23T05:39:26;25.48;;;13.75;;
41233;SDS011;26968;42.686;23.352;2022-10-23T05:41:52;34.85;;;15.95;;
41233;SDS011;26968;42.686;23.352;2022-10-23T05:44:19;29.08;;;15.43;;
41233;SDS011;26968;42.686;23.352;2022-10-23T05:46:44;33.35;;;14.93;;
41233;SDS011;26968;42.686;23.352;2022-10-23T05:49:10;23.98;;;13.90;;
41233;SDS011;26968;42.686;23.352;2022-10-23T05:51:36;37.60;;;13.85;;
41233;SDS011;26968;42.686;23.352;2022-10-23T05:54:02;30.90;;;15.48;;
41233;SDS011;26968;42.686;23.352;2022-10-23T05:56:30;31.15;;;15.30;;
41233;SDS011;26968;42.686;23.352;2022-10-23T05:58:56;38.78;;;18.15;;
41233;SDS011;26968;42.686;23.352;2022-10-23T06:01:21;46.20;;;20.23;;
41233;SDS011;26968;42.686;23.352;2022-10-23T06:03:47;37.78;;;19.55;;
41233;SDS011;26968;42.686;23.352;2022-10-23T06:06:12;37.33;;;18.00;;
41233;SDS011;26968;42.686;23.352;2022-10-23T06:08:38;49.30;;;19.50;;
41233;SDS011;26968;42.686;23.352;2022-10-23T06:11:04;33.55;;;17.70;;
41233;SDS011;26968;42.686;23.352;2022-10-23T06:13:31;36.35;;;18.75;;
41233;SDS011;26968;42.686;23.352;2022-10-23T06:15:56;44.22;;;18.98;;
41233;SDS011;26968;42.686;23.352;2022-10-23T06:18:22;37.45;;;19.20;;
41233;SDS011;26968;42.686;23.352;2022-10-23T06:20:47;43.50;;;18.33;;
41233;SDS011;26968;42.686;23.352;2022-10-23T06:23:13;43.53;;;18.15;;
41233;SDS011;26968;42.686;23.352;2022-10-23T06:25:38;42.13;;;19.20;;
41233;SDS011;26968;42.686;23.352;2022-10-23T06:28:03;45.92;;;18.05;;
41233;SDS011;26968;42.686;23.352;2022-10-23T06:30:29;42.95;;;17.70;;
41233;SDS011;26968;42.686;23.352;2022-10-23T06:32:54;36.22;;;14.95;;
41233;SDS011;26968;42.686;23.352;2022-10-23T06:35:20;31.23;;;13.80;;
41233;SDS011;26968;42.686;23.352;2022-10-23T06:37:45;43.38;;;13.73;;
41233;SDS011;26968;42.686;23.352;2022-10-23T06:40:11;31.20;;;13.13;;
41233;SDS011;26968;42.686;23.352;2022-10-23T06:42:36;25.65;;;9.82;;
41233;SDS011;26968;42.686;23.352;2022-10-23T06:45:02;17.60;;;9.35;;
41233;SDS011;26968;42.686;23.352;2022-10-23T06:47:27;18.77;;;9.13;;
41233;SDS011;26968;42.686;23.352;2022-10-23T06:49:53;24.48;;;8.57;;
41233;SDS011;26968;42.686;23.352;2022-10-23T06:52:18;16.88;;;8.52;;
41233;SDS011;26968;42.686;23.352;2022-10-23T06:54:44;19.33;;;8.90;;
41233;SDS011;26968;42.686;23.352;2022-10-23T06:57:09;19.73;;;8.15;;
41233;SDS011;26968;42.686;23.352;2022-10-23T06:59:34;14.13;;;8.18;;
41233;SDS011;26968;42.686;23.352;2022-10-23T07:02:00;20.30;;;7.95;;
41233;SDS011;26968;42.686;23.352;2022-10-23T07:04:25;14.40;;;8.77;;
41233;SDS011;26968;42.686;23.352;2022-10-23T07:06:53;17.13;;;7.70;;
41233;SDS011;26968;42.686;23.352;2022-10-23T07:09:20;13.73;;;8.20;;
41233;SDS011;26968;42.686;23.352;2022-10-23T07:11:45;19.00;;;8.00;;
41233;SDS011;26968;42.686;23.352;2022-10-23T07:14:11;19.55;;;8.05;;
41233;SDS011;26968;42.686;23.352;2022-10-23T07:16:36;17.08;;;7.65;;
41233;SDS011;26968;42.686;23.352;2022-10-23T07:19:02;15.80;;;7.20;;
41233;SDS011;26968;42.686;23.352;2022-10-23T07:21:28;15.48;;;7.53;;
41233;SDS011;26968;42.686;23.352;2022-10-23T07:23:55;13.57;;;7.53;;
41233;SDS011;26968;42.686;23.352;2022-10-23T07:26:22;13.50;;;7.82;;
41233;SDS011;26968;42.686;23.352;2022-10-23T07:28:48;15.65;;;8.02;;
41233;SDS011;26968;42.686;23.352;2022-10-23T07:31:19;20.02;;;7.82;;
41233;SDS011;26968;42.686;23.352;2022-10-23T07:33:48;20.08;;;9.55;;
41233;SDS011;26968;42.686;23.352;2022-10-23T07:36:14;22.15;;;9.52;;
41233;SDS011;26968;42.686;23.352;2022-10-23T07:38:40;18.83;;;7.40;;
41233;SDS011;26968;42.686;23.352;2022-10-23T07:41:05;15.82;;;7.90;;
41233;SDS011;26968;42.686;23.352;2022-10-23T07:43:31;17.70;;;9.00;;
41233;SDS011;26968;42.686;23.352;2022-10-23T07:45:58;13.50;;;7.43;;
41233;SDS011;26968;42.686;23.352;2022-10-23T07:48:23;14.65;;;7.03;;
41233;SDS011;26968;42.686;23.352;2022-10-23T07:50:51;15.02;;;6.93;;
41233;SDS011;26968;42.686;23.352;2022-10-23T07:53:17;15.38;;;6.80;;
41233;SDS011;26968;42.686;23.352;2022-10-23T07:55:52;13.57;;;7.20;;
41233;SDS011;26968;42.686;23.352;2022-10-23T07:58:20;11.32;;;6.63;;
41233;SDS011;26968;42.686;23.352;2022-10-23T08:00:45;16.98;;;7.35;;
41233;SDS011;26968;42.686;23.352;2022-10-23T08:03:16;19.58;;;6.00;;
41233;SDS011;26968;42.686;23.352;2022-10-23T08:05:42;17.55;;;6.03;;
41233;SDS011;26968;42.686;23.352;2022-10-23T08:08:08;14.63;;;5.65;;
41233;SDS011;26968;42.686;23.352;2022-10-23T08:10:33;14.90;;;5.70;;
41233;SDS011;26968;42.686;23.352;2022-10-23T08:12:59;11.95;;;5.35;;
41233;SDS011;26968;42.686;23.352;2022-10-23T08:15:24;12.95;;;5.80;;
41233;SDS011;26968;42.686;23.352;2022-10-23T08:17:50;12.70;;;4.97;;
41233;SDS011;26968;42.686;23.352;2022-10-23T08:20:15;23.15;;;6.00;;
41233;SDS011;26968;42.686;23.352;2022-10-23T08:22:41;13.98;;;5.45;;
41233;SDS011;26968;42.686;23.352;2022-10-23T08:25:06;11.50;;;5.00;;
41233;SDS011;26968;42.686;23.352;2022-10-23T08:27:32;22.40;;;5.70;;
41233;SDS011;26968;42.686;23.352;2022-10-23T08:29:57;14.57;;;5.88;;
41233;SDS011;26968;42.686;23.352;2022-10-23T08:32:23;8.85;;;5.47;;
41233;SDS011;26968;42.686;23.352;2022-10-23T08:34:48;16.80;;;6.38;;
41233;SDS011;26968;42.686;23.352;2022-10-23T08:37:14;9.77;;;5.25;;
41233;SDS011;26968;42.686;23.352;2022-10-23T08:39:39;11.55;;;5.78;;
41233;SDS011;26968;42.686;23.352;2022-10-23T08:42:05;18.55;;;6.32;;
41233;SDS011;26968;42.686;23.352;2022-10-23T08:44:45;17.83;;;5.90;;
41233;SDS011;26968;42.686;23.352;2022-10-23T08:47:20;13.02;;;5.80;;
41233;SDS011;26968;42.686;23.352;2022-10-23T08:49:57;12.07;;;6.28;;
41233;SDS011;26968;42.686;23.352;2022-10-23T08:55:26;10.85;;;5.85;;
41233;SDS011;26968;42.686;23.352;2022-10-23T09:00:31;13.25;;;5.30;;
41233;SDS011;26968;42.686;23.352;2022-10-23T09:03:00;9.95;;;5.47;;
41233;SDS011;26968;42.686;23.352;2022-10-23T09:11:05;9.82;;;5.68;;
41233;SDS011;26968;42.686;23.352;2022-10-23T09:19:29;12.00;;;6.32;;
41233;SDS011;26968;42.686;23.352;2022-10-23T09:21:56;8.55;;;4.93;;
41233;SDS011;26968;42.686;23.352;2022-10-23T09:24:23;11.63;;;5.30;;
41233;SDS011;26968;42.686;23.352;2022-10-23T09:26:51;13.57;;;5.35;;
41233;SDS011;26968;42.686;23.352;2022-10-23T09:29:20;9.70;;;5.00;;
41233;SDS011;26968;42.686;23.352;2022-10-23T09:31:52;22.70;;;5.10;;
41233;SDS011;26968;42.686;23.352;2022-10-23T09:34:20;12.80;;;5.72;;
41233;SDS011;26968;42.686;23.352;2022-10-23T09:36:51;12.32;;;5.40;;
41233;SDS011;26968;42.686;23.352;2022-10-23T09:41:57;10.68;;;4.60;;
41233;SDS011;26968;42.686;23.352;2022-10-23T09:44:32;10.75;;;4.53;;
41233;SDS011;26968;42.686;23.352;2022-10-23T09:46:59;8.90;;;4.13;;
41233;SDS011;26968;42.686;23.352;2022-10-23T09:49:32;11.63;;;4.28;;
41233;SDS011;26968;42.686;23.352;2022-10-23T09:52:00;6.32;;;3.65;;
41233;SDS011;26968;42.686;23.352;2022-10-23T10:00:14;12.23;;;4.10;;
41233;SDS011;26968;42.686;23.352;2022-10-23T10:02:52;4.75;;;3.10;;
41233;SDS011;26968;42.686;23.352;2022-10-23T10:10:38;8.05;;;2.97;;
41233;SDS011;26968;42.686;23.352;2022-10-23T10:15:46;4.90;;;3.13;;
41233;SDS011;26968;42.686;23.352;2022-10-23T10:18:21;7.65;;;3.30;;
41233;SDS011;26968;42.686;23.352;2022-10-23T10:23:31;3.80;;;2.42;;
41233;SDS011;26968;42.686;23.352;2022-10-23T10:39:55;5.57;;;3.08;;
41233;SDS011;26968;42.686;23.352;2022-10-23T10:47:32;5.43;;;2.90;;
41233;SDS011;26968;42.686;23.352;2022-10-23T10:52:42;13.85;;;3.30;;
41233;SDS011;26968;42.686;23.352;2022-10-23T11:00:23;9.00;;;3.40;;
41233;SDS011;26968;42.686;23.352;2022-10-23T11:02:53;6.15;;;2.92;;
41233;SDS011;26968;42.686;23.352;2022-10-23T11:05:29;5.60;;;2.50;;
41233;SDS011;26968;42.686;23.352;2022-10-23T11:08:14;7.88;;;2.45;;
41233;SDS011;26968;42.686;23.352;2022-10-23T11:10:47;13.55;;;3.08;;
41233;SDS011;26968;42.686;23.352;2022-10-23T11:15:47;9.98;;;2.78;;
41233;SDS011;26968;42.686;23.352;2022-10-23T11:18:14;9.27;;;2.58;;
41233;SDS011;26968;42.686;23.352;2022-10-23T11:23:54;6.78;;;3.13;;
41233;SDS011;26968;42.686;23.352;2022-10-23T11:35:08;11.25;;;3.17;;
41233;SDS011;26968;42.686;23.352;2022-10-23T11:37:57;5.18;;;3.08;;
41233;SDS011;26968;42.686;23.352;2022-10-23T11:40:24;9.00;;;3.10;;
41233;SDS011;26968;42.686;23.352;2022-10-23T11:42:50;4.30;;;2.80;;
41233;SDS011;26968;42.686;23.352;2022-10-23T11:45:27;5.78;;;3.20;;
41233;SDS011;26968;42.686;23.352;2022-10-23T11:48:01;8.35;;;2.38;;
41233;SDS011;26968;42.686;23.352;2022-10-23T11:53:22;10.60;;;3.03;;
41233;SDS011;26968;42.686;23.352;2022-10-23T11:58:42;4.70;;;2.33;;
41233;SDS011;26968;42.686;23.352;2022-10-23T12:03:54;9.30;;;2.58;;
41233;SDS011;26968;42.686;23.352;2022-10-23T12:06:30;5.25;;;2.40;;
41233;SDS011;26968;42.686;23.352;2022-10-23T12:09:06;5.18;;;2.67;;
41233;SDS011;26968;42.686;23.352;2022-10-23T12:11:46;5.15;;;2.45;;
41233;SDS011;26968;42.686;23.352;2022-10-23T12:14:25;6.03;;;3.00;;
41233;SDS011;26968;42.686;23.352;2022-10-23T12:16:52;8.23;;;2.63;;
41233;SDS011;26968;42.686;23.352;2022-10-23T12:19:20;8.75;;;3.75;;
41233;SDS011;26968;42.686;23.352;2022-10-23T12:21:49;11.65;;;3.42;;
41233;SDS011;26968;42.686;23.352;2022-10-23T12:26:51;5.55;;;2.35;;
41233;SDS011;26968;42.686;23.352;2022-10-23T12:40:22;6.68;;;2.83;;
41233;SDS011;26968;42.686;23.352;2022-10-23T12:42:54;7.75;;;1.85;;
41233;SDS011;26968;42.686;23.352;2022-10-23T12:45:22;5.13;;;1.95;;
41233;SDS011;26968;42.686;23.352;2022-10-23T12:47:50;9.32;;;1.80;;
41233;SDS011;26968;42.686;23.352;2022-10-23T12:50:20;6.97;;;2.00;;
41233;SDS011;26968;42.686;23.352;2022-10-23T12:55:22;2.40;;;1.90;;
41233;SDS011;26968;42.686;23.352;2022-10-23T12:57:49;7.15;;;1.95;;
41233;SDS011;26968;42.686;23.352;2022-10-23T13:00:17;6.53;;;1.70;;
41233;SDS011;26968;42.686;23.352;2022-10-23T13:02:45;4.38;;;2.15;;
41233;SDS011;26968;42.686;23.352;2022-10-23T13:05:13;4.75;;;1.92;;
41233;SDS011;26968;42.686;23.352;2022-10-23T13:07:44;8.18;;;1.73;;
41233;SDS011;26968;42.686;23.352;2022-10-23T13:10:12;15.70;;;2.78;;
41233;SDS011;26968;42.686;23.352;2022-10-23T13:12:40;5.40;;;2.17;;
41233;SDS011;26968;42.686;23.352;2022-10-23T13:28:21;5.05;;;1.67;;
41233;SDS011;26968;42.686;23.352;2022-10-23T13:36:24;3.53;;;2.10;;
41233;SDS011;26968;42.686;23.352;2022-10-23T13:43:48;9.75;;;5.75;;
41233;SDS011;26968;42.686;23.352;2022-10-23T13:46:14;11.43;;;5.03;;
41233;SDS011;26968;42.686;23.352;2022-10-23T13:48:41;11.35;;;4.07;;
41233;SDS011;26968;42.686;23.352;2022-10-23T13:51:14;6.45;;;2.75;;
41233;SDS011;26968;42.686;23.352;2022-10-23T13:53:43;5.47;;;3.03;;
41233;SDS011;26968;42.686;23.352;2022-10-23T13:56:12;9.85;;;2.90;;
41233;SDS011;26968;42.686;23.352;2022-10-23T13:58:38;3.95;;;2.30;;
41233;SDS011;26968;42.686;23.352;2022-10-23T14:01:04;11.15;;;2.72;;
41233;SDS011;26968;42.686;23.352;2022-10-23T14:03:31;6.82;;;2.90;;
41233;SDS011;26968;42.686;23.352;2022-10-23T14:05:56;5.50;;;2.10;;
41233;SDS011;26968;42.686;23.352;2022-10-23T14:08:22;7.05;;;2.60;;
41233;SDS011;26968;42.686;23.352;2022-10-23T14:10:47;4.70;;;2.40;;
41233;SDS011;26968;42.686;23.352;2022-10-23T14:13:13;11.57;;;2.40;;
41233;SDS011;26968;42.686;23.352;2022-10-23T14:15:38;10.82;;;2.38;;
41233;SDS011;26968;42.686;23.352;2022-10-23T14:18:04;7.72;;;2.25;;
41233;SDS011;26968;42.686;23.352;2022-10-23T14:20:29;3.70;;;1.92;;
41233;SDS011;26968;42.686;23.352;2022-10-23T14:22:55;9.25;;;2.38;;
41233;SDS011;26968;42.686;23.352;2022-10-23T14:25:20;5.50;;;2.25;;
41233;SDS011;26968;42.686;23.352;2022-10-23T14:27:46;11.57;;;2.40;;
41233;SDS011;26968;42.686;23.352;2022-10-23T14:30:12;7.72;;;2.63;;
41233;SDS011;26968;42.686;23.352;2022-10-23T14:32:38;4.88;;;2.38;;
41233;SDS011;26968;42.686;23.352;2022-10-23T14:35:04;9.02;;;2.70;;
41233;SDS011;26968;42.686;23.352;2022-10-23T14:37:30;11.82;;;2.42;;
41233;SDS011;26968;42.686;23.352;2022-10-23T14:39:58;4.65;;;2.53;;
41233;SDS011;26968;42.686;23.352;2022-10-23T14:42:24;5.85;;;2.20;;
41233;SDS011;26968;42.686;23.352;2022-10-23T14:44:50;10.10;;;2.42;;
41233;SDS011;26968;42.686;23.352;2022-10-23T14:47:16;5.68;;;2.55;;
41233;SDS011;26968;42.686;23.352;2022-10-23T14:49:45;4.53;;;2.55;;
41233;SDS011;26968;42.686;23.352;2022-10-23T14:52:15;6.65;;;2.70;;
41233;SDS011;26968;42.686;23.352;2022-10-23T14:54:41;5.63;;;2.60;;
41233;SDS011;26968;42.686;23.352;2022-10-23T14:57:06;10.15;;;2.83;;
41233;SDS011;26968;42.686;23.352;2022-10-23T14:59:31;4.95;;;2.85;;
41233;SDS011;26968;42.686;23.352;2022-10-23T15:01:57;6.25;;;2.60;;
41233;SDS011;26968;42.686;23.352;2022-10-23T15:04:23;10.25;;;2.85;;
41233;SDS011;26968;42.686;23.352;2022-10-23T15:06:48;5.90;;;2.60;;
41233;SDS011;26968;42.686;23.352;2022-10-23T15:09:14;8.13;;;2.60;;
41233;SDS011;26968;42.686;23.352;2022-10-23T15:11:39;9.88;;;3.10;;
41233;SDS011;26968;42.686;23.352;2022-10-23T15:14:05;9.20;;;2.95;;
41233;SDS011;26968;42.686;23.352;2022-10-23T15:16:30;6.50;;;3.08;;
41233;SDS011;26968;42.686;23.352;2022-10-23T15:18:56;13.65;;;3.03;;
41233;SDS011;26968;42.686;23.352;2022-10-23T15:21:21;7.88;;;2.92;;
41233;SDS011;26968;42.686;23.352;2022-10-23T15:23:47;8.50;;;2.75;;
41233;SDS011;26968;42.686;23.352;2022-10-23T15:26:16;7.38;;;2.85;;
41233;SDS011;26968;42.686;23.352;2022-10-23T15:28:54;9.95;;;3.28;;
41233;SDS011;26968;42.686;23.352;2022-10-23T15:34:02;8.40;;;2.90;;
41233;SDS011;26968;42.686;23.352;2022-10-23T15:36:28;12.82;;;4.68;;
41233;SDS011;26968;42.686;23.352;2022-10-23T15:38:54;19.40;;;6.22;;
41233;SDS011;26968;42.686;23.352;2022-10-23T15:41:21;8.00;;;3.55;;
41233;SDS011;26968;42.686;23.352;2022-10-23T15:43:51;10.63;;;3.58;;
41233;SDS011;26968;42.686;23.352;2022-10-23T15:46:17;16.88;;;5.28;;
41233;SDS011;26968;42.686;23.352;2022-10-23T15:48:42;11.15;;;3.78;;
41233;SDS011;26968;42.686;23.352;2022-10-23T15:51:08;10.05;;;3.78;;
41233;SDS011;26968;42.686;23.352;2022-10-23T15:53:33;10.27;;;4.13;;
41233;SDS011;26968;42.686;23.352;2022-10-23T15:55:59;11.20;;;3.10;;
41233;SDS011;26968;42.686;23.352;2022-10-23T15:58:24;9.07;;;3.53;;
41233;SDS011;26968;42.686;23.352;2022-10-23T16:00:50;11.60;;;3.80;;
41233;SDS011;26968;42.686;23.352;2022-10-23T16:03:15;9.52;;;3.80;;
41233;SDS011;26968;42.686;23.352;2022-10-23T16:05:41;12.70;;;4.43;;
41233;SDS011;26968;42.686;23.352;2022-10-23T16:08:06;9.45;;;4.15;;
41233;SDS011;26968;42.686;23.352;2022-10-23T16:10:32;8.18;;;4.38;;
41233;SDS011;26968;42.686;23.352;2022-10-23T16:12:57;9.43;;;4.57;;
41233;SDS011;26968;42.686;23.352;2022-10-23T16:15:23;13.70;;;5.00;;
41233;SDS011;26968;42.686;23.352;2022-10-23T16:17:48;10.88;;;5.03;;
41233;SDS011;26968;42.686;23.352;2022-10-23T16:20:14;12.05;;;4.57;;
41233;SDS011;26968;42.686;23.352;2022-10-23T16:22:41;10.07;;;4.72;;
41233;SDS011;26968;42.686;23.352;2022-10-23T16:25:07;8.40;;;4.30;;
41233;SDS011;26968;42.686;23.352;2022-10-23T16:27:33;9.20;;;4.00;;
41233;SDS011;26968;42.686;23.352;2022-10-23T16:29:58;7.45;;;4.25;;
41233;SDS011;26968;42.686;23.352;2022-10-23T16:32:24;11.00;;;4.00;;
41233;SDS011;26968;42.686;23.352;2022-10-23T16:34:49;12.77;;;4.60;;
41233;SDS011;26968;42.686;23.352;2022-10-23T16:37:15;9.07;;;4.35;;
41233;SDS011;26968;42.686;23.352;2022-10-23T16:39:40;10.55;;;5.13;;
41233;SDS011;26968;42.686;23.352;2022-10-23T16:42:05;14.65;;;4.60;;
41233;SDS011;26968;42.686;23.352;2022-10-23T16:44:31;13.25;;;4.43;;
41233;SDS011;26968;42.686;23.352;2022-10-23T16:46:56;7.45;;;4.53;;
41233;SDS011;26968;42.686;23.352;2022-10-23T16:49:22;14.13;;;5.47;;
41233;SDS011;26968;42.686;23.352;2022-10-23T16:51:49;10.48;;;5.38;;
41233;SDS011;26968;42.686;23.352;2022-10-23T16:54:15;10.88;;;4.68;;
41233;SDS011;26968;42.686;23.352;2022-10-23T16:56:41;7.90;;;4.13;;
41233;SDS011;26968;42.686;23.352;2022-10-23T16:59:08;11.50;;;3.97;;
41233;SDS011;26968;42.686;23.352;2022-10-23T17:01:34;11.10;;;5.13;;